sensor_id;sensor_type;location;lat;lon;timestamp;P1;durP1;ratioP1;P2;durP2;ratioP2
791;SDS011;379;49.022;12.148;2023-05-10T00:01:47;2.83;;;1.70;;
791;SDS011;379;49.022;12.148;2023-05-10T00:04:13;1.47;;;1.13;;
791;SDS011;379;49.022;12.148;2023-05-10T00:06:40;1.80;;;1.47;;
791;SDS011;379;49.022;12.148;2023-05-10T00:09:07;1.67;;;1.57;;
791;SDS011;379;49.022;12.148;2023-05-10T00:11:35;1.73;;;1.03;;
791;SDS011;379;49.022;12.148;2023-05-10T00:14:02;1.90;;;1.70;;
791;SDS011;379;49.022;12.148;2023-05-10T00:16:28;2.97;;;1.30;;
791;SDS011;379;49.022;12.148;2023-05-10T00:18:55;1.33;;;1.23;;
791;SDS011;379;49.022;12.148;2023-05-10T00:21:22;2.10;;;1.43;;
791;SDS011;379;49.022;12.148;2023-05-10T00:23:49;1.80;;;1.60;;
791;SDS011;379;49.022;12.148;2023-05-10T00:26:15;3.73;;;1.63;;
791;SDS011;379;49.022;12.148;2023-05-10T00:28:44;0.70;;;0.60;;
791;SDS011;379;49.022;12.148;2023-05-10T00:31:10;1.30;;;1.13;;
791;SDS011;379;49.022;12.148;2023-05-10T00:33:37;2.10;;;1.00;;
791;SDS011;379;49.022;12.148;2023-05-10T00:36:04;4.43;;;2.00;;
791;SDS011;379;49.022;12.148;2023-05-10T00:38:32;1.63;;;1.30;;
791;SDS011;379;49.022;12.148;2023-05-10T00:40:59;2.00;;;1.33;;
791;SDS011;379;49.022;12.148;2023-05-10T00:43:26;1.30;;;1.20;;
791;SDS011;379;49.022;12.148;2023-05-10T00:45:54;2.17;;;1.30;;
791;SDS011;379;49.022;12.148;2023-05-10T00:48:21;1.60;;;1.20;;
791;SDS011;379;49.022;12.148;2023-05-10T00:50:48;1.10;;;0.73;;
791;SDS011;379;49.022;12.148;2023-05-10T00:53:15;1.73;;;0.93;;
791;SDS011;379;49.022;12.148;2023-05-10T00:55:42;1.30;;;0.87;;
791;SDS011;379;49.022;12.148;2023-05-10T00:58:09;2.83;;;1.13;;
791;SDS011;379;49.022;12.148;2023-05-10T01:00:36;1.50;;;1.20;;
791;SDS011;379;49.022;12.148;2023-05-10T01:03:08;1.67;;;1.30;;
791;SDS011;379;49.022;12.148;2023-05-10T01:05:36;1.80;;;0.87;;
791;SDS011;379;49.022;12.148;2023-05-10T01:08:02;1.40;;;1.30;;
791;SDS011;379;49.022;12.148;2023-05-10T01:10:29;1.20;;;1.10;;
791;SDS011;379;49.022;12.148;2023-05-10T01:12:57;2.20;;;1.43;;
791;SDS011;379;49.022;12.148;2023-05-10T01:15:25;2.60;;;1.17;;
791;SDS011;379;49.022;12.148;2023-05-10T01:17:52;2.70;;;1.70;;
791;SDS011;379;49.022;12.148;2023-05-10T01:20:21;3.20;;;1.80;;
791;SDS011;379;49.022;12.148;2023-05-10T01:23:03;1.70;;;1.60;;
791;SDS011;379;49.022;12.148;2023-05-10T01:26:03;1.37;;;1.27;;
791;SDS011;379;49.022;12.148;2023-05-10T01:34:48;1.63;;;1.53;;
791;SDS011;379;49.022;12.148;2023-05-10T01:37:26;1.00;;;0.87;;
791;SDS011;379;49.022;12.148;2023-05-10T01:40:00;1.20;;;1.10;;
791;SDS011;379;49.022;12.148;2023-05-10T01:42:35;0.80;;;0.63;;
791;SDS011;379;49.022;12.148;2023-05-10T01:45:07;1.03;;;0.90;;
791;SDS011;379;49.022;12.148;2023-05-10T01:47:42;3.77;;;2.87;;
791;SDS011;379;49.022;12.148;2023-05-10T01:50:13;3.33;;;1.80;;
791;SDS011;379;49.022;12.148;2023-05-10T01:52:44;1.93;;;1.70;;
791;SDS011;379;49.022;12.148;2023-05-10T01:55:18;3.23;;;1.30;;
791;SDS011;379;49.022;12.148;2023-05-10T01:57:46;1.43;;;1.33;;
791;SDS011;379;49.022;12.148;2023-05-10T02:00:16;1.60;;;1.40;;
791;SDS011;379;49.022;12.148;2023-05-10T02:02:47;1.87;;;1.77;;
791;SDS011;379;49.022;12.148;2023-05-10T02:05:15;1.40;;;1.20;;
791;SDS011;379;49.022;12.148;2023-05-10T02:07:43;2.00;;;1.03;;
791;SDS011;379;49.022;12.148;2023-05-10T02:10:11;2.60;;;1.13;;
791;SDS011;379;49.022;12.148;2023-05-10T02:12:41;1.50;;;1.40;;
791;SDS011;379;49.022;12.148;2023-05-10T02:15:11;1.47;;;1.20;;
791;SDS011;379;49.022;12.148;2023-05-10T02:17:41;2.20;;;1.33;;
791;SDS011;379;49.022;12.148;2023-05-10T02:20:10;1.23;;;1.13;;
791;SDS011;379;49.022;12.148;2023-05-10T02:22:38;1.50;;;1.37;;
791;SDS011;379;49.022;12.148;2023-05-10T02:25:06;2.50;;;1.47;;
791;SDS011;379;49.022;12.148;2023-05-10T02:27:34;2.70;;;1.60;;
791;SDS011;379;49.022;12.148;2023-05-10T02:30:03;2.07;;;1.87;;
791;SDS011;379;49.022;12.148;2023-05-10T02:32:32;1.67;;;1.50;;
791;SDS011;379;49.022;12.148;2023-05-10T02:35:01;2.40;;;1.40;;
791;SDS011;379;49.022;12.148;2023-05-10T02:37:30;1.07;;;0.97;;
791;SDS011;379;49.022;12.148;2023-05-10T02:39:57;2.30;;;1.93;;
791;SDS011;379;49.022;12.148;2023-05-10T02:42:26;2.27;;;1.53;;
791;SDS011;379;49.022;12.148;2023-05-10T02:44:54;3.23;;;2.07;;
791;SDS011;379;49.022;12.148;2023-05-10T02:47:25;3.43;;;3.23;;
791;SDS011;379;49.022;12.148;2023-05-10T02:49:52;1.80;;;1.50;;
791;SDS011;379;49.022;12.148;2023-05-10T02:52:21;2.33;;;1.70;;
791;SDS011;379;49.022;12.148;2023-05-10T02:54:52;2.80;;;1.90;;
791;SDS011;379;49.022;12.148;2023-05-10T02:57:22;1.77;;;1.53;;
791;SDS011;379;49.022;12.148;2023-05-10T02:59:52;2.63;;;2.43;;
791;SDS011;379;49.022;12.148;2023-05-10T03:02:19;2.27;;;1.33;;
791;SDS011;379;49.022;12.148;2023-05-10T03:04:46;3.00;;;1.87;;
791;SDS011;379;49.022;12.148;2023-05-10T03:07:13;2.73;;;1.53;;
791;SDS011;379;49.022;12.148;2023-05-10T03:09:40;2.20;;;1.43;;
791;SDS011;379;49.022;12.148;2023-05-10T03:12:10;2.10;;;1.90;;
791;SDS011;379;49.022;12.148;2023-05-10T03:14:45;1.80;;;1.50;;
791;SDS011;379;49.022;12.148;2023-05-10T03:17:22;1.47;;;1.30;;
791;SDS011;379;49.022;12.148;2023-05-10T03:19:55;1.50;;;1.40;;
791;SDS011;379;49.022;12.148;2023-05-10T03:22:24;2.70;;;2.50;;
791;SDS011;379;49.022;12.148;2023-05-10T03:24:53;4.97;;;2.43;;
791;SDS011;379;49.022;12.148;2023-05-10T03:27:23;2.13;;;1.90;;
791;SDS011;379;49.022;12.148;2023-05-10T03:29:53;2.37;;;1.67;;
791;SDS011;379;49.022;12.148;2023-05-10T03:32:21;2.90;;;1.80;;
791;SDS011;379;49.022;12.148;2023-05-10T03:34:48;1.73;;;1.63;;
791;SDS011;379;49.022;12.148;2023-05-10T03:37:14;7.10;;;2.90;;
791;SDS011;379;49.022;12.148;2023-05-10T03:39:41;3.87;;;2.63;;
791;SDS011;379;49.022;12.148;2023-05-10T03:42:08;2.67;;;1.77;;
791;SDS011;379;49.022;12.148;2023-05-10T03:44:38;3.50;;;1.80;;
791;SDS011;379;49.022;12.148;2023-05-10T03:47:04;3.27;;;2.93;;
791;SDS011;379;49.022;12.148;2023-05-10T03:49:31;1.73;;;1.60;;
791;SDS011;379;49.022;12.148;2023-05-10T03:51:58;2.37;;;2.17;;
791;SDS011;379;49.022;12.148;2023-05-10T03:54:25;3.63;;;2.53;;
791;SDS011;379;49.022;12.148;2023-05-10T03:56:51;4.30;;;1.80;;
791;SDS011;379;49.022;12.148;2023-05-10T03:59:18;2.53;;;1.33;;
791;SDS011;379;49.022;12.148;2023-05-10T04:01:46;3.50;;;2.90;;
791;SDS011;379;49.022;12.148;2023-05-10T04:04:13;2.40;;;2.20;;
791;SDS011;379;49.022;12.148;2023-05-10T04:06:40;2.50;;;1.20;;
791;SDS011;379;49.022;12.148;2023-05-10T04:09:07;4.43;;;2.67;;
791;SDS011;379;49.022;12.148;2023-05-10T04:11:34;1.97;;;1.77;;
791;SDS011;379;49.022;12.148;2023-05-10T04:14:00;3.00;;;2.77;;
791;SDS011;379;49.022;12.148;2023-05-10T04:16:27;5.07;;;2.83;;
791;SDS011;379;49.022;12.148;2023-05-10T04:18:55;3.73;;;1.70;;
791;SDS011;379;49.022;12.148;2023-05-10T04:21:22;2.60;;;2.33;;
791;SDS011;379;49.022;12.148;2023-05-10T04:23:49;4.40;;;2.70;;
791;SDS011;379;49.022;12.148;2023-05-10T04:26:16;2.73;;;1.47;;
791;SDS011;379;49.022;12.148;2023-05-10T04:28:43;2.37;;;1.97;;
791;SDS011;379;49.022;12.148;2023-05-10T04:31:10;3.40;;;3.10;;
791;SDS011;379;49.022;12.148;2023-05-10T04:33:37;5.10;;;3.13;;
791;SDS011;379;49.022;12.148;2023-05-10T04:36:05;3.10;;;2.23;;
791;SDS011;379;49.022;12.148;2023-05-10T04:38:32;4.83;;;3.13;;
791;SDS011;379;49.022;12.148;2023-05-10T04:41:05;4.17;;;2.33;;
791;SDS011;379;49.022;12.148;2023-05-10T04:43:33;1.63;;;1.23;;
791;SDS011;379;49.022;12.148;2023-05-10T04:46:00;3.57;;;2.77;;
791;SDS011;379;49.022;12.148;2023-05-10T04:48:27;2.23;;;2.03;;
791;SDS011;379;49.022;12.148;2023-05-10T04:50:53;3.27;;;1.70;;
791;SDS011;379;49.022;12.148;2023-05-10T04:53:22;3.40;;;2.60;;
791;SDS011;379;49.022;12.148;2023-05-10T04:55:48;3.30;;;2.23;;
791;SDS011;379;49.022;12.148;2023-05-10T04:58:15;2.40;;;2.07;;
791;SDS011;379;49.022;12.148;2023-05-10T05:00:42;2.30;;;2.10;;
791;SDS011;379;49.022;12.148;2023-05-10T05:03:09;4.00;;;2.70;;
791;SDS011;379;49.022;12.148;2023-05-10T05:05:35;6.67;;;3.00;;
791;SDS011;379;49.022;12.148;2023-05-10T05:08:02;4.07;;;3.67;;
791;SDS011;379;49.022;12.148;2023-05-10T05:10:31;5.00;;;3.30;;
791;SDS011;379;49.022;12.148;2023-05-10T05:12:57;3.97;;;3.57;;
791;SDS011;379;49.022;12.148;2023-05-10T05:15:24;4.70;;;3.03;;
791;SDS011;379;49.022;12.148;2023-05-10T05:17:51;3.17;;;1.60;;
791;SDS011;379;49.022;12.148;2023-05-10T05:20:18;2.90;;;2.70;;
791;SDS011;379;49.022;12.148;2023-05-10T05:22:44;5.83;;;3.50;;
791;SDS011;379;49.022;12.148;2023-05-10T05:25:11;4.10;;;2.60;;
791;SDS011;379;49.022;12.148;2023-05-10T05:27:39;3.57;;;3.10;;
791;SDS011;379;49.022;12.148;2023-05-10T05:30:07;3.37;;;2.10;;
791;SDS011;379;49.022;12.148;2023-05-10T05:32:35;2.43;;;2.03;;
791;SDS011;379;49.022;12.148;2023-05-10T05:35:01;3.50;;;2.57;;
791;SDS011;379;49.022;12.148;2023-05-10T05:37:28;4.30;;;2.47;;
791;SDS011;379;49.022;12.148;2023-05-10T05:39:55;5.60;;;3.37;;
791;SDS011;379;49.022;12.148;2023-05-10T05:42:22;2.50;;;2.30;;
791;SDS011;379;49.022;12.148;2023-05-10T05:44:50;4.53;;;4.13;;
791;SDS011;379;49.022;12.148;2023-05-10T05:47:16;1.97;;;1.67;;
791;SDS011;379;49.022;12.148;2023-05-10T05:49:43;3.67;;;3.37;;
791;SDS011;379;49.022;12.148;2023-05-10T05:52:11;4.43;;;4.13;;
791;SDS011;379;49.022;12.148;2023-05-10T05:54:38;2.60;;;2.40;;
791;SDS011;379;49.022;12.148;2023-05-10T05:57:05;3.63;;;3.13;;
791;SDS011;379;49.022;12.148;2023-05-10T05:59:32;2.63;;;2.40;;
791;SDS011;379;49.022;12.148;2023-05-10T06:02:00;3.40;;;3.13;;
791;SDS011;379;49.022;12.148;2023-05-10T06:04:27;5.20;;;3.37;;
791;SDS011;379;49.022;12.148;2023-05-10T06:06:54;2.27;;;2.07;;
791;SDS011;379;49.022;12.148;2023-05-10T06:09:20;2.93;;;1.93;;
791;SDS011;379;49.022;12.148;2023-05-10T06:11:48;2.97;;;2.57;;
791;SDS011;379;49.022;12.148;2023-05-10T06:14:15;3.70;;;2.77;;
791;SDS011;379;49.022;12.148;2023-05-10T06:16:42;3.57;;;2.77;;
791;SDS011;379;49.022;12.148;2023-05-10T06:19:10;3.60;;;3.30;;
791;SDS011;379;49.022;12.148;2023-05-10T06:21:36;11.40;;;3.37;;
791;SDS011;379;49.022;12.148;2023-05-10T06:24:03;5.07;;;3.57;;
791;SDS011;379;49.022;12.148;2023-05-10T06:26:31;5.73;;;3.23;;
791;SDS011;379;49.022;12.148;2023-05-10T06:28:58;3.33;;;2.57;;
791;SDS011;379;49.022;12.148;2023-05-10T06:31:25;3.30;;;2.80;;
791;SDS011;379;49.022;12.148;2023-05-10T06:33:51;5.17;;;3.93;;
791;SDS011;379;49.022;12.148;2023-05-10T06:36:19;3.70;;;2.70;;
791;SDS011;379;49.022;12.148;2023-05-10T06:38:46;4.07;;;3.67;;
791;SDS011;379;49.022;12.148;2023-05-10T06:41:13;5.23;;;3.80;;
791;SDS011;379;49.022;12.148;2023-05-10T06:43:40;3.83;;;2.47;;
791;SDS011;379;49.022;12.148;2023-05-10T06:46:08;4.70;;;2.50;;
791;SDS011;379;49.022;12.148;2023-05-10T06:48:34;4.70;;;3.40;;
791;SDS011;379;49.022;12.148;2023-05-10T06:51:01;2.67;;;2.40;;
791;SDS011;379;49.022;12.148;2023-05-10T06:53:29;5.77;;;3.97;;
791;SDS011;379;49.022;12.148;2023-05-10T06:55:56;3.17;;;2.10;;
791;SDS011;379;49.022;12.148;2023-05-10T06:58:23;3.60;;;3.00;;
791;SDS011;379;49.022;12.148;2023-05-10T07:00:49;4.93;;;2.90;;
791;SDS011;379;49.022;12.148;2023-05-10T07:03:16;7.40;;;4.37;;
791;SDS011;379;49.022;12.148;2023-05-10T07:05:43;4.30;;;2.67;;
791;SDS011;379;49.022;12.148;2023-05-10T07:08:09;5.30;;;3.20;;
791;SDS011;379;49.022;12.148;2023-05-10T07:10:38;4.83;;;3.07;;
791;SDS011;379;49.022;12.148;2023-05-10T07:13:04;4.37;;;3.50;;
791;SDS011;379;49.022;12.148;2023-05-10T07:15:31;6.90;;;3.43;;
791;SDS011;379;49.022;12.148;2023-05-10T07:17:58;5.43;;;5.03;;
791;SDS011;379;49.022;12.148;2023-05-10T07:20:25;3.30;;;3.00;;
791;SDS011;379;49.022;12.148;2023-05-10T07:22:51;5.53;;;3.93;;
791;SDS011;379;49.022;12.148;2023-05-10T07:25:18;5.37;;;4.40;;
791;SDS011;379;49.022;12.148;2023-05-10T07:27:46;4.50;;;3.60;;
791;SDS011;379;49.022;12.148;2023-05-10T07:30:14;4.60;;;2.57;;
791;SDS011;379;49.022;12.148;2023-05-10T07:32:41;5.00;;;3.10;;
791;SDS011;379;49.022;12.148;2023-05-10T07:35:08;7.80;;;3.57;;
791;SDS011;379;49.022;12.148;2023-05-10T07:37:35;6.30;;;3.60;;
791;SDS011;379;49.022;12.148;2023-05-10T07:40:01;6.27;;;3.80;;
791;SDS011;379;49.022;12.148;2023-05-10T07:42:28;3.90;;;3.43;;
791;SDS011;379;49.022;12.148;2023-05-10T07:44:56;4.07;;;3.63;;
791;SDS011;379;49.022;12.148;2023-05-10T07:47:23;4.37;;;3.40;;
791;SDS011;379;49.022;12.148;2023-05-10T07:49:50;5.07;;;4.37;;
791;SDS011;379;49.022;12.148;2023-05-10T07:52:16;5.27;;;3.23;;
791;SDS011;379;49.022;12.148;2023-05-10T07:54:43;5.20;;;4.30;;
791;SDS011;379;49.022;12.148;2023-05-10T07:57:10;3.73;;;3.17;;
791;SDS011;379;49.022;12.148;2023-05-10T07:59:39;3.13;;;2.50;;
791;SDS011;379;49.022;12.148;2023-05-10T08:02:07;2.70;;;2.50;;
791;SDS011;379;49.022;12.148;2023-05-10T08:04:34;4.23;;;3.73;;
791;SDS011;379;49.022;12.148;2023-05-10T08:07:01;4.87;;;4.17;;
791;SDS011;379;49.022;12.148;2023-05-10T08:09:27;4.00;;;3.60;;
791;SDS011;379;49.022;12.148;2023-05-10T08:11:54;5.83;;;3.40;;
791;SDS011;379;49.022;12.148;2023-05-10T08:14:21;3.90;;;3.07;;
791;SDS011;379;49.022;12.148;2023-05-10T08:16:48;3.63;;;3.33;;
791;SDS011;379;49.022;12.148;2023-05-10T08:19:16;3.73;;;3.10;;
791;SDS011;379;49.022;12.148;2023-05-10T08:21:44;5.47;;;3.07;;
791;SDS011;379;49.022;12.148;2023-05-10T08:24:11;5.47;;;4.20;;
791;SDS011;379;49.022;12.148;2023-05-10T08:26:37;4.63;;;3.87;;
791;SDS011;379;49.022;12.148;2023-05-10T08:29:04;5.10;;;3.07;;
791;SDS011;379;49.022;12.148;2023-05-10T08:31:31;3.40;;;3.10;;
791;SDS011;379;49.022;12.148;2023-05-10T08:33:58;3.63;;;3.03;;
791;SDS011;379;49.022;12.148;2023-05-10T08:36:26;6.80;;;2.83;;
791;SDS011;379;49.022;12.148;2023-05-10T08:38:53;4.47;;;3.13;;
791;SDS011;379;49.022;12.148;2023-05-10T08:41:20;4.67;;;3.53;;
791;SDS011;379;49.022;12.148;2023-05-10T08:43:49;2.93;;;2.10;;
791;SDS011;379;49.022;12.148;2023-05-10T08:46:17;3.60;;;3.30;;
791;SDS011;379;49.022;12.148;2023-05-10T08:48:45;4.37;;;3.30;;
791;SDS011;379;49.022;12.148;2023-05-10T08:51:13;3.17;;;2.70;;
791;SDS011;379;49.022;12.148;2023-05-10T08:53:42;4.27;;;3.93;;
791;SDS011;379;49.022;12.148;2023-05-10T08:56:10;6.23;;;5.70;;
791;SDS011;379;49.022;12.148;2023-05-10T08:58:37;4.40;;;3.00;;
791;SDS011;379;49.022;12.148;2023-05-10T09:01:04;3.57;;;2.27;;
791;SDS011;379;49.022;12.148;2023-05-10T09:03:31;3.70;;;3.40;;
791;SDS011;379;49.022;12.148;2023-05-10T09:05:58;4.83;;;3.20;;
791;SDS011;379;49.022;12.148;2023-05-10T09:08:25;3.50;;;2.80;;
791;SDS011;379;49.022;12.148;2023-05-10T09:10:54;4.50;;;3.93;;
791;SDS011;379;49.022;12.148;2023-05-10T09:13:21;5.50;;;3.57;;
791;SDS011;379;49.022;12.148;2023-05-10T09:15:49;5.70;;;3.40;;
791;SDS011;379;49.022;12.148;2023-05-10T09:18:16;4.80;;;2.73;;
791;SDS011;379;49.022;12.148;2023-05-10T09:20:43;3.77;;;3.03;;
791;SDS011;379;49.022;12.148;2023-05-10T09:23:09;4.57;;;2.70;;
791;SDS011;379;49.022;12.148;2023-05-10T09:25:36;4.37;;;3.30;;
791;SDS011;379;49.022;12.148;2023-05-10T09:28:07;4.90;;;3.00;;
791;SDS011;379;49.022;12.148;2023-05-10T09:30:34;4.83;;;2.70;;
791;SDS011;379;49.022;12.148;2023-05-10T09:33:01;3.63;;;3.00;;
791;SDS011;379;49.022;12.148;2023-05-10T09:35:29;3.27;;;2.97;;
791;SDS011;379;49.022;12.148;2023-05-10T09:37:57;4.40;;;1.93;;
791;SDS011;379;49.022;12.148;2023-05-10T09:40:26;3.07;;;2.53;;
791;SDS011;379;49.022;12.148;2023-05-10T09:42:54;1.70;;;1.60;;
791;SDS011;379;49.022;12.148;2023-05-10T09:45:23;2.10;;;1.87;;
791;SDS011;379;49.022;12.148;2023-05-10T09:47:51;3.63;;;2.30;;
791;SDS011;379;49.022;12.148;2023-05-10T09:50:19;3.47;;;2.80;;
791;SDS011;379;49.022;12.148;2023-05-10T09:52:47;3.60;;;2.40;;
791;SDS011;379;49.022;12.148;2023-05-10T09:55:15;2.90;;;2.70;;
791;SDS011;379;49.022;12.148;2023-05-10T09:57:42;1.20;;;1.10;;
791;SDS011;379;49.022;12.148;2023-05-10T10:00:09;1.10;;;0.60;;
791;SDS011;379;49.022;12.148;2023-05-10T10:02:43;2.70;;;1.00;;
791;SDS011;379;49.022;12.148;2023-05-10T10:05:11;2.13;;;1.17;;
791;SDS011;379;49.022;12.148;2023-05-10T10:07:39;1.70;;;1.37;;
791;SDS011;379;49.022;12.148;2023-05-10T10:10:06;3.27;;;1.93;;
791;SDS011;379;49.022;12.148;2023-05-10T10:12:36;3.03;;;2.20;;
791;SDS011;379;49.022;12.148;2023-05-10T10:15:03;3.10;;;2.00;;
791;SDS011;379;49.022;12.148;2023-05-10T10:17:31;1.83;;;1.57;;
791;SDS011;379;49.022;12.148;2023-05-10T10:20:03;2.27;;;1.50;;
791;SDS011;379;49.022;12.148;2023-05-10T10:22:31;3.10;;;2.90;;
791;SDS011;379;49.022;12.148;2023-05-10T10:24:58;3.10;;;2.10;;
791;SDS011;379;49.022;12.148;2023-05-10T10:27:26;4.80;;;4.00;;
791;SDS011;379;49.022;12.148;2023-05-10T10:30:02;6.73;;;4.90;;
791;SDS011;379;49.022;12.148;2023-05-10T10:32:38;3.13;;;2.40;;
791;SDS011;379;49.022;12.148;2023-05-10T10:35:19;1.43;;;0.80;;
791;SDS011;379;49.022;12.148;2023-05-10T10:37:46;3.10;;;2.30;;
791;SDS011;379;49.022;12.148;2023-05-10T10:40:25;2.07;;;1.60;;
791;SDS011;379;49.022;12.148;2023-05-10T10:42:53;1.37;;;1.07;;
791;SDS011;379;49.022;12.148;2023-05-10T10:45:21;3.73;;;2.10;;
791;SDS011;379;49.022;12.148;2023-05-10T10:47:49;1.57;;;1.00;;
791;SDS011;379;49.022;12.148;2023-05-10T10:50:44;0.70;;;0.50;;
791;SDS011;379;49.022;12.148;2023-05-10T10:53:12;0.70;;;0.67;;
791;SDS011;379;49.022;12.148;2023-05-10T10:55:44;0.60;;;0.40;;
791;SDS011;379;49.022;12.148;2023-05-10T10:58:18;0.70;;;0.50;;
791;SDS011;379;49.022;12.148;2023-05-10T11:01:08;1.00;;;0.60;;
791;SDS011;379;49.022;12.148;2023-05-10T11:03:39;4.73;;;0.87;;
791;SDS011;379;49.022;12.148;2023-05-10T11:06:07;1.10;;;0.60;;
791;SDS011;379;49.022;12.148;2023-05-10T11:08:34;0.60;;;0.40;;
791;SDS011;379;49.022;12.148;2023-05-10T11:11:07;0.50;;;0.30;;
791;SDS011;379;49.022;12.148;2023-05-10T11:13:37;1.03;;;0.50;;
791;SDS011;379;49.022;12.148;2023-05-10T11:16:12;0.70;;;0.50;;
791;SDS011;379;49.022;12.148;2023-05-10T11:18:58;0.70;;;0.57;;
791;SDS011;379;49.022;12.148;2023-05-10T11:21:29;0.80;;;0.50;;
791;SDS011;379;49.022;12.148;2023-05-10T11:23:56;0.80;;;0.60;;
791;SDS011;379;49.022;12.148;2023-05-10T11:26:24;0.90;;;0.73;;
791;SDS011;379;49.022;12.148;2023-05-10T11:28:52;0.80;;;0.60;;
791;SDS011;379;49.022;12.148;2023-05-10T11:31:21;1.00;;;0.60;;
791;SDS011;379;49.022;12.148;2023-05-10T11:33:52;1.03;;;0.60;;
791;SDS011;379;49.022;12.148;2023-05-10T11:36:20;0.60;;;0.40;;
791;SDS011;379;49.022;12.148;2023-05-10T11:38:48;0.87;;;0.63;;
791;SDS011;379;49.022;12.148;2023-05-10T11:41:16;1.00;;;0.67;;
791;SDS011;379;49.022;12.148;2023-05-10T11:43:46;0.93;;;0.50;;
791;SDS011;379;49.022;12.148;2023-05-10T11:46:15;0.73;;;0.60;;
791;SDS011;379;49.022;12.148;2023-05-10T11:48:45;0.60;;;0.50;;
791;SDS011;379;49.022;12.148;2023-05-10T11:51:12;0.83;;;0.60;;
791;SDS011;379;49.022;12.148;2023-05-10T11:53:39;0.60;;;0.40;;
791;SDS011;379;49.022;12.148;2023-05-10T11:56:08;1.10;;;0.80;;
791;SDS011;379;49.022;12.148;2023-05-10T11:58:36;0.60;;;0.40;;
791;SDS011;379;49.022;12.148;2023-05-10T12:01:04;0.60;;;0.40;;
791;SDS011;379;49.022;12.148;2023-05-10T12:03:32;0.60;;;0.50;;
791;SDS011;379;49.022;12.148;2023-05-10T12:05:59;0.87;;;0.43;;
791;SDS011;379;49.022;12.148;2023-05-10T12:08:28;0.60;;;0.40;;
791;SDS011;379;49.022;12.148;2023-05-10T12:11:03;0.90;;;0.50;;
791;SDS011;379;49.022;12.148;2023-05-10T12:13:34;0.60;;;0.40;;
791;SDS011;379;49.022;12.148;2023-05-10T12:16:12;1.13;;;0.83;;
791;SDS011;379;49.022;12.148;2023-05-10T12:18:40;0.60;;;0.30;;
791;SDS011;379;49.022;12.148;2023-05-10T12:21:07;1.00;;;0.40;;
791;SDS011;379;49.022;12.148;2023-05-10T12:23:36;0.60;;;0.30;;
791;SDS011;379;49.022;12.148;2023-05-10T12:26:03;0.80;;;0.50;;
791;SDS011;379;49.022;12.148;2023-05-10T12:28:31;0.80;;;0.40;;
791;SDS011;379;49.022;12.148;2023-05-10T12:30:59;0.80;;;0.67;;
791;SDS011;379;49.022;12.148;2023-05-10T12:33:27;0.80;;;0.43;;
791;SDS011;379;49.022;12.148;2023-05-10T12:36:01;0.90;;;0.60;;
791;SDS011;379;49.022;12.148;2023-05-10T12:38:29;0.90;;;0.70;;
791;SDS011;379;49.022;12.148;2023-05-10T12:40:58;1.17;;;0.93;;
791;SDS011;379;49.022;12.148;2023-05-10T12:43:26;1.10;;;0.70;;
791;SDS011;379;49.022;12.148;2023-05-10T12:45:55;0.60;;;0.40;;
791;SDS011;379;49.022;12.148;2023-05-10T12:48:22;0.67;;;0.47;;
791;SDS011;379;49.022;12.148;2023-05-10T12:50:48;1.10;;;0.90;;
791;SDS011;379;49.022;12.148;2023-05-10T12:53:15;5.60;;;0.97;;
791;SDS011;379;49.022;12.148;2023-05-10T12:55:42;1.40;;;0.90;;
791;SDS011;379;49.022;12.148;2023-05-10T12:58:09;1.33;;;1.00;;
791;SDS011;379;49.022;12.148;2023-05-10T13:00:36;0.60;;;0.40;;
791;SDS011;379;49.022;12.148;2023-05-10T13:03:05;0.60;;;0.30;;
791;SDS011;379;49.022;12.148;2023-05-10T13:05:32;0.60;;;0.30;;
791;SDS011;379;49.022;12.148;2023-05-10T13:07:58;0.80;;;0.43;;
791;SDS011;379;49.022;12.148;2023-05-10T13:10:25;0.97;;;0.60;;
791;SDS011;379;49.022;12.148;2023-05-10T13:12:52;0.70;;;0.40;;
791;SDS011;379;49.022;12.148;2023-05-10T13:15:19;1.43;;;0.77;;
791;SDS011;379;49.022;12.148;2023-05-10T13:17:45;0.60;;;0.40;;
791;SDS011;379;49.022;12.148;2023-05-10T13:20:13;0.70;;;0.50;;
791;SDS011;379;49.022;12.148;2023-05-10T13:22:41;2.03;;;0.70;;
791;SDS011;379;49.022;12.148;2023-05-10T13:25:08;1.53;;;0.70;;
791;SDS011;379;49.022;12.148;2023-05-10T13:27:35;0.60;;;0.40;;
791;SDS011;379;49.022;12.148;2023-05-10T13:30:02;0.63;;;0.50;;
791;SDS011;379;49.022;12.148;2023-05-10T13:32:29;1.93;;;0.40;;
791;SDS011;379;49.022;12.148;2023-05-10T13:34:56;0.70;;;0.57;;
791;SDS011;379;49.022;12.148;2023-05-10T13:37:24;0.60;;;0.40;;
791;SDS011;379;49.022;12.148;2023-05-10T13:39:51;0.70;;;0.40;;
791;SDS011;379;49.022;12.148;2023-05-10T13:42:18;0.60;;;0.40;;
791;SDS011;379;49.022;12.148;2023-05-10T13:44:44;1.23;;;0.40;;
791;SDS011;379;49.022;12.148;2023-05-10T13:47:11;0.60;;;0.30;;
791;SDS011;379;49.022;12.148;2023-05-10T13:49:38;0.93;;;0.40;;
791;SDS011;379;49.022;12.148;2023-05-10T13:52:04;0.70;;;0.50;;
791;SDS011;379;49.022;12.148;2023-05-10T13:54:33;1.23;;;0.70;;
791;SDS011;379;49.022;12.148;2023-05-10T13:57:00;0.70;;;0.50;;
791;SDS011;379;49.022;12.148;2023-05-10T13:59:28;1.70;;;0.70;;
791;SDS011;379;49.022;12.148;2023-05-10T14:01:56;0.70;;;0.50;;
791;SDS011;379;49.022;12.148;2023-05-10T14:04:23;0.60;;;0.30;;
791;SDS011;379;49.022;12.148;2023-05-10T14:06:50;0.80;;;0.40;;
791;SDS011;379;49.022;12.148;2023-05-10T14:09:17;2.43;;;0.93;;
791;SDS011;379;49.022;12.148;2023-05-10T14:11:46;0.80;;;0.40;;
791;SDS011;379;49.022;12.148;2023-05-10T14:14:12;3.77;;;1.70;;
791;SDS011;379;49.022;12.148;2023-05-10T14:16:41;1.10;;;0.60;;
791;SDS011;379;49.022;12.148;2023-05-10T14:19:08;2.80;;;0.80;;
791;SDS011;379;49.022;12.148;2023-05-10T14:21:35;1.77;;;0.50;;
791;SDS011;379;49.022;12.148;2023-05-10T14:24:02;1.83;;;0.53;;
791;SDS011;379;49.022;12.148;2023-05-10T14:26:29;0.77;;;0.67;;
791;SDS011;379;49.022;12.148;2023-05-10T14:28:57;0.97;;;0.77;;
791;SDS011;379;49.022;12.148;2023-05-10T14:31:24;0.90;;;0.80;;
791;SDS011;379;49.022;12.148;2023-05-10T14:33:52;0.70;;;0.67;;
791;SDS011;379;49.022;12.148;2023-05-10T14:36:18;0.80;;;0.60;;
791;SDS011;379;49.022;12.148;2023-05-10T14:38:45;0.70;;;0.60;;
791;SDS011;379;49.022;12.148;2023-05-10T14:41:12;0.70;;;0.40;;
791;SDS011;379;49.022;12.148;2023-05-10T14:43:40;0.60;;;0.40;;
791;SDS011;379;49.022;12.148;2023-05-10T14:46:08;1.20;;;0.60;;
791;SDS011;379;49.022;12.148;2023-05-10T14:48:35;0.90;;;0.70;;
791;SDS011;379;49.022;12.148;2023-05-10T14:51:02;0.60;;;0.50;;
791;SDS011;379;49.022;12.148;2023-05-10T14:53:28;1.53;;;1.10;;
791;SDS011;379;49.022;12.148;2023-05-10T14:55:55;0.80;;;0.57;;
791;SDS011;379;49.022;12.148;2023-05-10T14:58:22;1.43;;;1.33;;
791;SDS011;379;49.022;12.148;2023-05-10T15:00:49;0.80;;;0.70;;
791;SDS011;379;49.022;12.148;2023-05-10T15:03:17;0.70;;;0.60;;
791;SDS011;379;49.022;12.148;2023-05-10T15:05:44;0.70;;;0.70;;
791;SDS011;379;49.022;12.148;2023-05-10T15:08:11;0.73;;;0.73;;
791;SDS011;379;49.022;12.148;2023-05-10T15:10:37;0.70;;;0.43;;
791;SDS011;379;49.022;12.148;2023-05-10T15:13:04;0.73;;;0.50;;
791;SDS011;379;49.022;12.148;2023-05-10T15:15:31;0.60;;;0.40;;
791;SDS011;379;49.022;12.148;2023-05-10T15:17:58;0.80;;;0.40;;
791;SDS011;379;49.022;12.148;2023-05-10T15:20:26;2.40;;;0.83;;
791;SDS011;379;49.022;12.148;2023-05-10T15:22:52;2.33;;;0.70;;
791;SDS011;379;49.022;12.148;2023-05-10T15:25:19;1.30;;;0.70;;
791;SDS011;379;49.022;12.148;2023-05-10T15:27:46;2.40;;;1.07;;
791;SDS011;379;49.022;12.148;2023-05-10T15:30:13;1.60;;;0.80;;
791;SDS011;379;49.022;12.148;2023-05-10T15:32:40;0.73;;;0.50;;
791;SDS011;379;49.022;12.148;2023-05-10T15:35:07;1.17;;;0.80;;
791;SDS011;379;49.022;12.148;2023-05-10T15:37:36;11.33;;;1.00;;
791;SDS011;379;49.022;12.148;2023-05-10T15:40:04;1.13;;;0.63;;
791;SDS011;379;49.022;12.148;2023-05-10T15:42:31;0.60;;;0.40;;